Flight Track Log - Related Links

Times and Time Zones

All times are in EDT time to prevent confusion due to time zone crossing. See the SWA3232 flight status page for this flight to view local times or setup timezone preferences in your user account.

Time Position Orientation Groundspeed Altitude Reporting Facility
EDT Latitude Longitude Course Direction KTS MPH feet Rate Location/Type
Mon 07:53:42 AM 42.9500 -71.4500 348° North 166 191 1,400  Level KA90
Mon 07:54:56 AM 43.0131 -71.4689 348° North 228 262 4,200 2,418 Climbing Boston Center
Mon 07:55:56 AM 43.0478 -71.3917 58° Northeast 206 237 6,800 2,950 Climbing Boston Center
Mon 07:56:56 AM 43.0572 -71.2778 83° East 274 315 10,100 2,150 Climbing Boston Center
Mon 07:57:56 AM 43.0600 -71.1528 88° East 332 382 11,100 1,900 Climbing Boston Center
Mon 07:58:56 AM 43.0642 -70.9850 88° East 393 452 13,900 2,550 Climbing Boston Center
Mon 07:59:56 AM 42.9858 -70.8933 139° Southeast 373 429 16,200 2,400 Climbing Boston Center
Mon 08:00:56 AM 42.8967 -70.9267 195° South 307 353 18,700 2,550 Climbing Boston Center
Mon 08:01:56 AM 42.8078 -70.9683 199° South 317 365 21,300 2,800 Climbing Boston Center
Mon 08:02:56 AM 42.7186 -71.0158 201° Southwest 329 379 24,300 1,950 Climbing Boston Center
Mon 08:03:56 AM 42.6575 -71.1161 230° Southwest 334 384 25,200 1,250 Climbing Boston Center
Mon 08:04:56 AM 42.6003 -71.2217 234° Southwest 340 391 26,800 1,700 Climbing Boston Center
Mon 08:05:56 AM 42.5408 -71.3328 234° Southwest 360 414 28,600 1,750 Climbing Boston Center
Mon 08:06:56 AM 42.4836 -71.4406 234° Southwest 360 414 30,300 1,450 Climbing Boston Center
Mon 08:07:56 AM 42.4158 -71.5569 232° Southwest 366 421 31,500 1,100 Climbing Boston Center
Mon 08:08:56 AM 42.3561 -71.6675 234° Southwest 372 428 32,500 900 Climbing Boston Center
Mon 08:09:56 AM 42.2964 -71.7778 234° Southwest 372 428 33,300 800 Climbing Boston Center
Mon 08:10:56 AM 42.2322 -71.8906 232° Southwest 377 434 34,100 950 Climbing Boston Center
Mon 08:11:56 AM 42.1703 -72.0086 235° Southwest 382 440 35,200 950 Climbing Boston Center
Mon 08:12:56 AM 42.1061 -72.1239 233° Southwest 387 445 36,000 400 Climbing Boston Center
Mon 08:13:56 AM 42.0417 -72.2361 232° Southwest 387 445 36,000  Level Boston Center
Mon 08:14:56 AM 41.9794 -72.3508 234° Southwest 387 445 36,000  Level Boston Center
Mon 08:15:56 AM 41.9169 -72.4653 234° Southwest 387 445 36,000  Level Boston Center
Mon 08:16:56 AM 41.8522 -72.5794 233° Southwest 387 445 36,000  Level Boston Center
Mon 08:17:56 AM 41.7958 -72.6794 233° Southwest 387 445 36,000  Level Boston Center
Mon 08:18:56 AM 41.7308 -72.7933 233° Southwest 387 445 36,000  Level Boston Center
Mon 08:19:56 AM 41.6658 -72.9069 233° Southwest 387 445 36,000  Level Boston Center
Mon 08:20:56 AM 41.6028 -73.0203 233° Southwest 387 445 36,000  Level Boston Center
Mon 08:21:56 AM 41.5353 -73.1417 233° Southwest 380 437 36,000  Level Boston Center
Mon 08:22:56 AM 41.4700 -73.2519 232° Southwest 380 437 36,000  Level Boston Center
Mon 08:24:43 AM 41.3628 -73.4386 233° Southwest 391 450 36,000  Level New York Center
Mon 08:25:43 AM 41.2975 -73.5547 233° Southwest 397 457 36,000  Level New York Center
Mon 08:26:41 AM 41.2283 -73.6622 229° Southwest 397 457 36,000  Level New York Center
Mon 08:27:42 AM 41.1589 -73.7694 229° Southwest 392 451 36,000  Level New York Center
Mon 08:28:42 AM 41.0917 -73.8767 230° Southwest 392 451 36,000  Level New York Center
Mon 08:29:43 AM 41.0222 -73.9833 229° Southwest 392 451 36,000  Level New York Center
Mon 08:30:43 AM 40.9544 -74.0956 231° Southwest 387 445 36,000  Level New York Center
Mon 08:31:43 AM 40.8847 -74.1992 228° Southwest 387 445 36,000  Level New York Center
Mon 08:32:41 AM 40.8150 -74.3025 228° Southwest 387 445 36,000  Level New York Center
Mon 08:33:43 AM 40.7472 -74.4114 231° Southwest 387 445 36,000  Level New York Center
Mon 08:34:44 AM 40.6794 -74.5144 229° Southwest 387 445 36,000  Level New York Center
Mon 08:35:41 AM 40.6092 -74.6200 229° Southwest 387 445 36,000  Level New York Center
Mon 08:36:41 AM 40.5431 -74.7283 231° Southwest 387 445 36,000  Level New York Center
Mon 08:37:42 AM 40.4750 -74.8333 230° Southwest 387 445 36,000  Level New York Center
Mon 08:38:42 AM 40.4067 -74.9383 230° Southwest 387 445 36,000  Level New York Center
Mon 08:39:43 AM 40.3386 -75.0406 229° Southwest 387 445 36,000  Level New York Center
Mon 08:40:43 AM 40.2678 -75.1478 229° Southwest 387 445 36,000  Level New York Center
Mon 08:41:43 AM 40.1972 -75.2519 228° Southwest 387 445 36,000  Level New York Center
Mon 08:42:41 AM 40.1306 -75.3589 231° Southwest 387 445 36,000  Level New York Center
Mon 08:43:41 AM 40.0578 -75.4628 228° Southwest 387 445 36,000  Level New York Center
Mon 08:44:42 AM 39.9886 -75.5719 230° Southwest 387 445 36,000  Level New York Center
Mon 08:45:43 AM 39.9108 -75.6908 230° Southwest 392 451 36,000  Level New York Center
Mon 08:47:25 AM 39.8008 -75.8669 231° Southwest 390 449 36,000  Level Washington Center
Mon 08:48:26 AM 39.7339 -75.9719 230° Southwest 395 455 36,000  Level Washington Center
Mon 08:49:24 AM 39.6647 -76.0794 230° Southwest 390 449 36,000  Level Washington Center
Mon 08:50:25 AM 39.5975 -76.1839 230° Southwest 390 449 36,000  Level Washington Center
Mon 08:51:26 AM 39.5283 -76.2911 230° Southwest 390 449 36,000  Level Washington Center
Mon 08:52:24 AM 39.4608 -76.3953 230° Southwest 390 449 36,000  Level Washington Center
Mon 08:53:24 AM 39.3933 -76.5019 231° Southwest 390 449 36,000  Level Washington Center
Mon 08:54:25 AM 39.3217 -76.6056 228° Southwest 395 455 36,000  Level Washington Center
Mon 08:55:26 AM 39.2542 -76.7092 230° Southwest 390 449 36,000  Level Washington Center
Mon 08:56:26 AM 39.1886 -76.8153 231° Southwest 385 443 36,000  Level Washington Center
Mon 08:57:24 AM 39.1208 -76.9214 231° Southwest 385 443 36,000  Level Washington Center
Mon 08:58:25 AM 39.0528 -77.0242 230° Southwest 380 437 36,000  Level Washington Center
Mon 08:59:26 AM 38.9683 -77.1242 223° Southwest 380 437 36,000  Level Washington Center
Mon 09:00:23 AM 38.8836 -77.2131 219° Southwest 385 443 36,000  Level Washington Center
Mon 09:01:25 AM 38.8011 -77.3044 221° Southwest 396 456 36,000  Level Washington Center
Mon 09:02:26 AM 38.7206 -77.3931 221° Southwest 396 456 36,000  Level Washington Center
Mon 09:03:26 AM 38.6550 -77.4633 220° Southwest 391 450 36,000  Level Washington Center
Mon 09:04:24 AM 38.5572 -77.5722 221° Southwest 391 450 36,000  Level Washington Center
Mon 09:05:25 AM 38.4767 -77.6603 221° Southwest 391 450 36,000  Level Washington Center
Mon 09:06:26 AM 38.3936 -77.7481 220° Southwest 386 444 36,000  Level Washington Center
Mon 09:07:26 AM 38.3108 -77.8383 221° Southwest 376 433 36,000  Level Washington Center
Mon 09:08:26 AM 38.2278 -77.9283 220° Southwest 392 451 36,000  Level Washington Center
Mon 09:09:24 AM 38.1425 -78.0181 220° Southwest 397 457 36,000  Level Washington Center
Mon 09:10:25 AM 38.0614 -78.1078 221° Southwest 397 457 36,000  Level Washington Center
Mon 09:11:25 AM 37.9783 -78.1867 217° Southwest 391 450 36,000  Level Washington Center
Mon 09:12:26 AM 37.9036 -78.2631 219° Southwest 385 443 36,000  Level Washington Center
Mon 09:13:24 AM 37.8056 -78.3569 217° Southwest 391 450 36,000  Level Washington Center
Mon 09:14:25 AM 37.7203 -78.4350 216° Southwest 396 456 36,000  Level Washington Center
Mon 09:15:26 AM 37.6350 -78.5158 217° Southwest 396 456 36,000  Level Washington Center
Mon 09:16:24 AM 37.5453 -78.5989 216° Southwest 396 456 36,000  Level Washington Center
Mon 09:17:24 AM 37.4683 -78.6742 218° Southwest 396 456 36,000  Level Washington Center
Mon 09:18:25 AM 37.3808 -78.7544 216° Southwest 401 461 36,000  Level Washington Center
Mon 09:19:26 AM 37.2908 -78.8342 215° Southwest 401 461 36,000  Level Washington Center
Mon 09:20:24 AM 37.2031 -78.9164 217° Southwest 401 461 36,000  Level Washington Center
Mon 09:21:25 AM 37.1153 -78.9986 217° Southwest 401 461 36,000  Level Washington Center
Mon 09:22:26 AM 37.0208 -79.0881 217° Southwest 401 461 36,000  Level Washington Center
Mon 09:23:24 AM 36.9353 -79.1675 217° Southwest 396 456 36,000  Level Washington Center
Mon 09:24:24 AM 36.8472 -79.2464 216° Southwest 396 456 36,000  Level Washington Center
Mon 09:25:24 AM 36.7614 -79.3253 216° Southwest 396 456 36,000  Level Washington Center
Mon 09:26:25 AM 36.6733 -79.4039 216° Southwest 396 456 36,000  Level Washington Center
Mon 09:27:26 AM 36.5981 -79.4753 217° Southwest 396 456 36,000  Level Washington Center
Mon 09:28:24 AM 36.5119 -79.5536 216° Southwest 396 456 36,000  Level Washington Center
Mon 09:29:44 AM 36.3831 -79.6675 215° Southwest 401 461 36,000  Level Atlanta Center
Mon 09:30:44 AM 36.3042 -79.7414 217° Southwest 401 461 36,000  Level Atlanta Center
Mon 09:31:43 AM 36.2150 -79.8183 215° Southwest 396 456 36,000  Level Atlanta Center
Mon 09:32:44 AM 36.1281 -79.8972 216° Southwest 396 456 36,000  Level Atlanta Center
Mon 09:33:44 AM 36.0347 -79.9767 215° Southwest 396 456 36,000  Level Atlanta Center
Mon 09:34:43 AM 35.9131 -80.0186 196° South 404 465 36,000  Level Atlanta Center
Mon 09:35:43 AM 35.8017 -80.0572 196° South 409 471 36,000  Level Atlanta Center
Mon 09:36:43 AM 35.6903 -80.0908 194° South 414 476 36,000  Level Atlanta Center
Mon 09:37:43 AM 35.5811 -80.1319 197° South 414 476 36,000  Level Atlanta Center
Mon 09:38:43 AM 35.4839 -80.1647 195° South 414 476 36,000  Level Atlanta Center
Mon 09:39:43 AM 35.3722 -80.1978 194° South 415 478 36,000  Level Atlanta Center
Mon 09:40:43 AM 35.2669 -80.2308 194° South 408 470 36,000  Level Atlanta Center
Mon 09:42:40 AM 35.0469 -80.3064 196° South 411 473 36,000  Level Jacksonville Center
Mon 09:43:40 AM 34.9392 -80.3375 193° South 411 473 36,000  Level Jacksonville Center
Mon 09:44:40 AM 34.8294 -80.3736 195° South 411 473 36,000  Level Jacksonville Center
Mon 09:45:40 AM 34.7256 -80.4044 194° South 405 466 36,000  Level Jacksonville Center
Mon 09:46:39 AM 34.6200 -80.4403 196° South 400 460 36,000  Level Jacksonville Center
Mon 09:47:39 AM 34.5122 -80.4736 194° South 395 455 36,000  Level Jacksonville Center
Mon 09:48:40 AM 34.4086 -80.5067 195° South 395 455 36,000  Level Jacksonville Center
Mon 09:49:39 AM 34.3047 -80.5397 195° South 395 455 36,000  Level Jacksonville Center
Mon 09:50:39 AM 34.2053 -80.5700 194° South 395 455 36,000  Level Jacksonville Center
Mon 09:51:40 AM 34.1014 -80.6028 195° South 395 455 36,000  Level Jacksonville Center
Mon 09:52:39 AM 33.9956 -80.6358 195° South 395 455 36,000  Level Jacksonville Center
Mon 09:53:39 AM 33.8919 -80.6708 196° South 395 455 36,000  Level Jacksonville Center
Mon 09:54:39 AM 33.7903 -80.7033 195° South 390 449 36,000  Level Jacksonville Center
Mon 09:55:39 AM 33.6864 -80.7336 194° South 390 449 36,000  Level Jacksonville Center
Mon 09:56:39 AM 33.5828 -80.7658 195° South 390 449 36,000  Level Jacksonville Center
Mon 09:57:39 AM 33.4789 -80.7983 195° South 390 449 36,000  Level Jacksonville Center
Mon 09:58:39 AM 33.3731 -80.8281 193° South 390 449 36,000  Level Jacksonville Center
Mon 09:59:39 AM 33.2692 -80.8628 196° South 390 449 36,000  Level Jacksonville Center
Mon 10:00:40 AM 33.1631 -80.8925 193° South 390 449 36,000  Level Jacksonville Center
Mon 10:01:39 AM 33.0594 -80.9272 196° South 390 449 36,000  Level Jacksonville Center
Mon 10:02:39 AM 32.9533 -80.9567 193° South 390 449 36,000  Level Jacksonville Center
Mon 10:03:40 AM 32.8453 -80.9911 195° South 395 455 36,000  Level Jacksonville Center
Mon 10:04:39 AM 32.7394 -81.0231 194° South 395 455 36,000  Level Jacksonville Center
Mon 10:05:39 AM 32.6289 -81.0425 188° South 395 455 36,000  Level Jacksonville Center
Mon 10:06:40 AM 32.5100 -81.0425 180° South 407 468 36,000  Level Jacksonville Center
Mon 10:07:40 AM 32.3806 -81.0475 182° South 421 484 36,000  Level Jacksonville Center
Mon 10:08:39 AM 32.2636 -81.0475 180° South 427 491 36,000  Level Jacksonville Center
Mon 10:09:40 AM 32.1572 -81.0472 180° South 419 482 36,000  Level Jacksonville Center
Mon 10:10:40 AM 32.0217 -81.0525 182° South 425 489 36,000  Level Jacksonville Center
Mon 10:11:40 AM 31.9047 -81.0572 182° South 427 491 36,000  Level Jacksonville Center
Mon 10:12:39 AM 31.7983 -81.0569 180° South 427 491 36,000  Level Jacksonville Center
Mon 10:13:40 AM 31.6689 -81.0594 181° South 422 486 36,000  Level Jacksonville Center
Mon 10:14:39 AM 31.5522 -81.0667 183° South 427 491 36,000  Level Jacksonville Center
Mon 10:15:40 AM 31.4414 -81.0664 180° South 427 491 36,000  Level Jacksonville Center
Mon 10:16:39 AM 31.3100 -81.0714 182° South 437 503 36,000  Level Jacksonville Center
Mon 10:17:40 AM 31.1911 -81.0736 181° South 431 496 36,000  Level Jacksonville Center
Mon 10:18:40 AM 31.0700 -81.0758 181° South 431 496 36,000  Level Jacksonville Center
Mon 10:19:39 AM 30.9508 -81.0783 181° South 436 502 36,000 -202 Level Jacksonville Center
Mon 10:20:39 AM 30.8319 -81.0831 182° South 436 502 35,600 -694 Descending Jacksonville Center
Mon 10:21:40 AM 30.7108 -81.0828 180° South 436 502 34,600 -793 Descending Jacksonville Center
Mon 10:22:40 AM 30.5900 -81.0875 182° South 441 507 34,000 -300 Descending Jacksonville Center
Mon 10:23:40 AM 30.4833 -81.0894 181° South 434 499 34,000  Level Jacksonville Center
Mon 10:24:40 AM 30.3686 -81.0917 181° South 429 494 34,000 -454 Level Jacksonville Center
Mon 10:25:39 AM 30.2517 -81.0939 181° South 424 488 33,100 -950 Descending Jacksonville Center
Mon 10:26:40 AM 30.1306 -81.0961 181° South 424 488 32,100 -942 Descending Jacksonville Center
Mon 10:27:40 AM 30.0075 -81.1008 182° South 429 494 31,200 -900 Descending Jacksonville Center
Mon 10:28:40 AM 29.8822 -81.1031 181° South 442 509 30,300 -950 Descending Jacksonville Center
Mon 10:29:40 AM 29.7550 -81.1056 181° South 448 516 29,300 -2,100 Descending Jacksonville Center
Mon 10:30:40 AM 29.6297 -81.1103 182° South 454 522 26,100 -3,000 Descending Jacksonville Center
Mon 10:31:40 AM 29.5047 -81.1125 181° South 460 529 23,300 -2,750 Descending Jacksonville Center
Mon 10:32:40 AM 29.3897 -81.1144 181° South 441 507 20,600 -2,650 Descending Jacksonville Center
Mon 10:33:40 AM 29.2731 -81.1167 181° South 430 495 18,000 -2,600 Descending Jacksonville Center
Mon 10:34:40 AM 29.1642 -81.0997 172° South 412 474 15,400 -2,600 Descending Jacksonville Center
Mon 10:35:40 AM 29.0556 -81.0944 178° South 402 463 12,800 -1,700 Descending Jacksonville Center
Mon 10:36:40 AM 28.9489 -81.0822 174° South 396 456 12,000 -655 Descending Jacksonville Center
Mon 10:37:39 AM 28.8489 -81.0958 187° South 375 432 11,500 -805 Descending Jacksonville Center
Mon 10:38:02 AM 28.8000 -81.1167 200° South 356 410 10,900 -1,011 Descending Orlando TRACON
Mon 10:39:08 AM 28.7000 -81.1333 188° South 324 373 10,000 -450 Descending Orlando TRACON
Mon 10:40:02 AM 28.6167 -81.1667 199° South 336 387 10,000  Level Orlando TRACON
Mon 10:41:03 AM 28.5333 -81.1833 190° South 319 367 10,000 -694 Level Orlando TRACON
Mon 10:42:03 AM 28.4500 -81.1833 180° South 294 338 8,600 -1,053 Descending Orlando TRACON
Mon 10:42:57 AM 28.3833 -81.1833 180° South 251 289 8,000 -789 Descending Orlando TRACON
Mon 10:43:57 AM 28.3167 -81.2000 192° South 176 203 7,100 -1,400 Descending Orlando TRACON
Mon 10:44:57 AM 28.3000 -81.2333 240° Southwest 159 183 5,200 -1,850 Descending Orlando TRACON
Mon 10:45:57 AM 28.3000 -81.2667 270° West 141 162 3,400 -1,750 Descending Orlando TRACON
Mon 10:46:57 AM 28.3333 -81.2833 336° Northwest 151 174 1,700 -1,238 Descending Orlando TRACON
Mon 10:48:03 AM 28.3833 -81.2833 360° North 140 161 800 -818 Descending Orlando TRACON
Mon 10:50:00 AM 28.4167 -81.3000 336° Northwest  Level FlightAware Approximate
Mon 10:57:00 AM 28.4294 -81.3090 336° Northwest  Level Estimated
Mon 10:58:00 AM 28.4294 -81.3090 336° Northwest  Level Estimated
Mon 10:59:00 AM 28.4294 -81.3090 336° Northwest  Level Estimated
Mon 11:00:00 AM 28.4294 -81.3090 336° Northwest  Level Estimated

Login

Don't have an account? Register now (free) for customized features, flight alerts, and more!